Time;durP1;ratioP1;P1;durP2;ratioP2;P2;SDS_P1;SDS_P2;PMS_P1;PMS_P2;Temp;Humidity;BMP_temperature;BMP_pressure;BME280_temperature;BME280_humidity;BME280_pressure;Samples;Min_cycle;Max_cycle;Signal;HPM_P1;HPM_P2
2022/06/16 00:01:24;;;;;;;6.23;3.43;;;18.80;82.10;;;;;;5068455;28;20462;-75
2022/06/16 00:04:09;;;;;;;5.33;3.60;;;18.80;82.10;;;;;;5074170;28;20501;-76
2022/06/16 00:06:56;;;;;;;5.63;4.00;;;18.70;82.40;;;;;;5082512;28;20429;-75
2022/06/16 00:09:43;;;;;;;6.90;4.17;;;18.60;82.60;;;;;;5078086;28;20449;-75
2022/06/16 00:12:29;;;;;;;7.57;3.70;;;18.50;82.70;;;;;;5068997;28;20501;-75
2022/06/16 00:15:19;;;;;;;5.13;3.13;;;18.40;82.60;;;;;;5068020;28;20997;-74
2022/06/16 00:18:04;;;;;;;6.50;3.80;;;18.40;82.80;;;;;;5077955;28;20875;-76
2022/06/16 00:20:50;;;;;;;4.47;3.40;;;18.30;83.40;;;;;;5076588;28;20442;-76
2022/06/16 00:23:37;;;;;;;5.07;4.03;;;18.20;83.40;;;;;;5068896;28;20680;-76
2022/06/16 00:26:26;;;;;;;7.00;3.77;;;18.10;83.60;;;;;;5073113;28;20422;-76
2022/06/16 00:29:12;;;;;;;5.80;3.90;;;18.20;83.90;;;;;;5071879;28;20453;-76
2022/06/16 00:31:58;;;;;;;8.60;3.10;;;18.20;83.50;;;;;;5077505;28;20446;-76
2022/06/16 00:34:44;;;;;;;5.40;3.50;;;18.30;83.10;;;;;;5076131;28;20426;-76
2022/06/16 00:37:30;;;;;;;5.00;3.20;;;18.30;83.10;;;;;;5072049;28;20780;-75
2022/06/16 00:40:16;;;;;;;5.47;4.50;;;18.20;83.20;;;;;;5071994;28;20447;-75
2022/06/16 00:43:03;;;;;;;5.00;3.53;;;18.10;83.20;;;;;;5070221;28;20470;-75
2022/06/16 00:45:53;;;;;;;4.20;3.07;;;18.10;83.10;;;;;;5080778;28;20435;-76
2022/06/16 00:48:43;;;;;;;7.47;3.50;;;17.90;83.40;;;;;;5076170;28;20897;-76
2022/06/16 00:51:33;;;;;;;9.40;4.43;;;17.90;83.80;;;;;;5066035;28;20443;-76
2022/06/16 00:54:24;;;;;;;5.37;3.50;;;17.80;82.80;;;;;;5069882;28;20517;-76
2022/06/16 00:57:14;;;;;;;4.00;3.47;;;17.80;83.10;;;;;;5081399;28;20493;-76
2022/06/16 01:00:06;;;;;;;4.70;3.70;;;17.70;83.20;;;;;;5077291;28;20989;-75
2022/06/16 01:02:51;;;;;;;6.83;3.50;;;17.60;84.00;;;;;;5073847;28;20478;-76
2022/06/16 01:05:37;;;;;;;13.30;3.57;;;17.60;84.40;;;;;;5082410;28;20936;-76
2022/06/16 01:08:22;;;;;;;8.60;3.43;;;17.60;84.40;;;;;;5071974;28;20455;-74
2022/06/16 01:13:41;;;;;;;7.20;3.43;;;17.50;83.90;;;;;;5078275;28;20445;-76
2022/06/16 01:14:37;;;;;;;4.77;3.33;;;17.50;84.70;;;;;;5076315;28;20509;-76
2022/06/16 01:17:34;;;;;;;12.80;4.70;;;17.40;85.70;;;;;;5072414;28;20410;-75
2022/06/16 01:20:31;;;;;;;5.47;4.07;;;17.20;86.10;;;;;;5068285;28;20435;-75
2022/06/16 01:24:04;;;;;;;4.50;3.50;;;17.20;86.30;;;;;;5065071;28;20478;-76
2022/06/16 01:27:35;;;;;;;6.73;3.30;;;17.20;86.10;;;;;;5078803;28;20447;-76
2022/06/16 01:30:30;;;;;;;10.47;3.87;;;17.10;87.40;;;;;;5067985;28;20524;-75
2022/06/16 01:33:23;;;;;;;4.30;3.20;;;17.00;87.80;;;;;;5084274;28;20951;-75
2022/06/16 01:36:15;;;;;;;18.33;3.37;;;17.00;88.30;;;;;;5081684;28;20784;-76
2022/06/16 01:39:06;;;;;;;7.57;3.77;;;17.00;88.50;;;;;;5074810;28;20582;-76
2022/06/16 01:41:58;;;;;;;5.30;3.50;;;17.00;88.90;;;;;;5069467;28;20516;-75
2022/06/16 01:44:46;;;;;;;4.40;3.30;;;17.10;89.00;;;;;;5072730;28;20574;-75
2022/06/16 01:47:35;;;;;;;4.13;3.30;;;17.10;88.90;;;;;;5071655;28;20785;-75
2022/06/16 01:50:25;;;;;;;5.87;3.77;;;17.20;89.70;;;;;;5069739;28;20478;-74
2022/06/16 01:53:15;;;;;;;4.67;3.67;;;17.30;88.90;;;;;;5071101;28;20530;-75
2022/06/16 01:56:10;;;;;;;8.37;3.80;;;17.40;87.80;;;;;;5072572;28;20430;-76
2022/06/16 01:59:01;;;;;;;4.87;3.60;;;17.30;88.00;;;;;;5078744;28;20533;-75
2022/06/16 02:01:50;;;;;;;8.43;3.83;;;17.20;88.00;;;;;;5072484;28;20478;-75
2022/06/16 02:04:43;;;;;;;5.33;4.10;;;16.90;89.50;;;;;;5076152;28;20531;-76
2022/06/16 02:07:34;;;;;;;3.87;3.27;;;16.60;90.40;;;;;;5074261;28;20423;-76
2022/06/16 02:10:24;;;;;;;5.03;3.77;;;16.60;91.10;;;;;;5067624;28;20481;-74
2022/06/16 02:13:13;;;;;;;8.40;3.93;;;16.60;91.30;;;;;;5080928;28;20799;-76
2022/06/16 02:16:02;;;;;;;6.90;3.83;;;16.50;91.80;;;;;;5073325;28;20427;-75
2022/06/16 02:18:51;;;;;;;11.13;4.83;;;16.50;92.20;;;;;;5077661;28;20427;-76
2022/06/16 02:21:40;;;;;;;8.67;4.20;;;16.50;92.20;;;;;;5067444;28;20881;-75
2022/06/16 02:24:28;;;;;;;7.13;3.17;;;16.50;92.40;;;;;;5078710;28;20568;-76
2022/06/16 02:27:15;;;;;;;5.80;3.90;;;16.50;92.50;;;;;;5072265;28;20493;-75
2022/06/16 02:30:00;;;;;;;5.27;4.27;;;16.50;92.70;;;;;;5068629;28;20505;-76
2022/06/16 02:32:57;;;;;;;4.60;3.70;;;16.40;93.20;;;;;;5070834;28;20423;-76
2022/06/16 02:35:51;;;;;;;7.60;3.30;;;16.40;93.00;;;;;;5073080;28;20515;-75
2022/06/16 02:38:51;;;;;;;5.70;3.77;;;16.40;93.30;;;;;;5082025;28;20557;-76
2022/06/16 02:41:45;;;;;;;11.27;5.07;;;16.50;93.20;;;;;;5079645;28;20508;-78
2022/06/16 02:44:38;;;;;;;7.30;4.10;;;16.60;93.30;;;;;;5066910;28;20434;-75
2022/06/16 02:47:48;;;;;;;5.80;3.60;;;16.60;92.90;;;;;;5069724;28;20430;-75
2022/06/16 02:50:44;;;;;;;5.83;4.10;;;16.50;92.90;;;;;;5061831;28;20995;-75
2022/06/16 02:53:39;;;;;;;7.33;4.10;;;16.50;93.00;;;;;;5069666;28;20446;-75
2022/06/16 02:56:33;;;;;;;7.10;4.17;;;16.50;93.10;;;;;;5065289;28;20449;-75
2022/06/16 02:59:22;;;;;;;5.10;3.57;;;16.50;93.20;;;;;;5064273;28;20497;-74
2022/06/16 03:02:11;;;;;;;6.00;3.83;;;16.50;93.20;;;;;;5071601;28;20608;-75
2022/06/16 03:04:59;;;;;;;5.83;3.40;;;16.50;93.10;;;;;;5076377;28;20799;-76
2022/06/16 03:07:46;;;;;;;8.83;4.50;;;16.60;92.90;;;;;;5075241;28;20431;-75
2022/06/16 03:13:36;;;;;;;7.20;4.13;;;16.50;92.60;;;;;;5076571;28;21025;-76
2022/06/16 03:16:22;;;;;;;4.00;3.47;;;16.40;92.90;;;;;;5070418;28;20427;-76
2022/06/16 03:19:07;;;;;;;6.00;4.10;;;16.40;93.10;;;;;;5072568;28;20474;-75
2022/06/16 03:21:54;;;;;;;5.67;3.90;;;16.40;93.10;;;;;;5072528;28;20493;-75
2022/06/16 03:24:40;;;;;;;6.97;3.40;;;16.30;93.30;;;;;;5078324;28;20997;-75
2022/06/16 03:27:26;;;;;;;7.13;3.93;;;16.20;93.50;;;;;;5080761;28;20425;-76
2022/06/16 03:30:13;;;;;;;4.47;3.60;;;16.20;93.80;;;;;;5076220;28;20480;-75
2022/06/16 03:32:58;;;;;;;8.00;3.60;;;16.20;94.00;;;;;;5085449;28;20786;-75
2022/06/16 03:35:44;;;;;;;5.73;3.23;;;16.20;94.10;;;;;;5079875;28;20509;-76
2022/06/16 03:38:34;;;;;;;5.93;3.50;;;16.30;94.30;;;;;;5075015;28;20528;-75
2022/06/16 03:41:19;;;;;;;5.33;4.03;;;16.30;94.20;;;;;;5073318;28;20418;-75
2022/06/16 03:44:06;;;;;;;7.23;4.13;;;16.40;94.30;;;;;;5077648;28;20483;-75
2022/06/16 03:46:53;;;;;;;4.80;4.00;;;16.40;94.30;;;;;;5080540;28;20429;-75
2022/06/16 03:49:39;;;;;;;4.23;3.73;;;16.40;94.40;;;;;;5070619;28;20475;-75
2022/06/16 03:52:24;;;;;;;5.17;3.67;;;16.50;94.40;;;;;;5080559;28;20465;-76
2022/06/16 03:55:10;;;;;;;4.20;3.73;;;16.60;94.30;;;;;;5082651;28;20434;-75
2022/06/16 03:57:57;;;;;;;5.33;3.93;;;16.60;94.00;;;;;;5079399;28;20951;-75
2022/06/16 04:00:43;;;;;;;4.90;3.50;;;16.70;94.10;;;;;;5078575;28;20451;-75
2022/06/16 04:06:35;;;;;;;4.93;3.97;;;16.70;95.00;;;;;;5070743;28;20488;-76
2022/06/16 04:09:21;;;;;;;7.27;4.17;;;16.60;94.80;;;;;;5067777;28;20467;-75
2022/06/16 04:12:07;;;;;;;6.43;4.20;;;16.50;95.00;;;;;;5081286;28;20427;-76
2022/06/16 04:14:54;;;;;;;6.70;4.30;;;16.60;95.10;;;;;;5080073;28;20489;-76
2022/06/16 04:17:39;;;;;;;5.77;4.50;;;16.60;95.40;;;;;;5077358;28;20507;-75
2022/06/16 04:20:27;;;;;;;5.73;4.30;;;16.70;95.70;;;;;;5076063;28;20441;-75
2022/06/16 04:23:12;;;;;;;4.97;4.20;;;16.70;95.50;;;;;;5088520;28;20512;-76
2022/06/16 04:25:58;;;;;;;5.53;4.10;;;16.60;95.60;;;;;;5074906;28;20516;-75
2022/06/16 04:28:43;;;;;;;10.97;4.20;;;16.60;96.00;;;;;;5068933;28;20425;-75
2022/06/16 04:31:30;;;;;;;4.80;3.90;;;16.50;96.40;;;;;;5075152;28;20799;-75
2022/06/16 04:34:15;;;;;;;5.10;4.40;;;16.50;96.80;;;;;;5071515;28;20775;-75
2022/06/16 04:37:03;;;;;;;6.40;4.43;;;16.50;98.00;;;;;;5080258;28;20427;-75
2022/06/16 04:39:49;;;;;;;7.23;4.20;;;16.60;98.00;;;;;;5077308;28;20983;-75
2022/06/16 04:42:34;;;;;;;4.80;4.10;;;16.60;97.70;;;;;;5077428;28;20470;-76
2022/06/16 04:45:20;;;;;;;6.90;4.00;;;16.60;97.80;;;;;;5072636;28;20427;-75
2022/06/16 04:48:07;;;;;;;4.50;4.10;;;16.70;98.10;;;;;;5074573;28;20451;-75
2022/06/16 04:50:53;;;;;;;5.90;4.23;;;16.90;98.40;;;;;;5078006;28;20426;-76
2022/06/16 04:53:40;;;;;;;8.83;3.70;;;17.00;97.80;;;;;;5082839;28;20434;-76
2022/06/16 04:56:25;;;;;;;5.80;3.50;;;17.10;97.80;;;;;;5078200;28;20418;-75
2022/06/16 05:01:39;;;;;;;5.43;3.93;;;17.40;97.60;;;;;;5058344;28;20995;-75
2022/06/16 05:04:24;;;;;;;7.77;3.97;;;17.60;97.20;;;;;;5064174;28;20466;-76
2022/06/16 05:07:10;;;;;;;7.90;3.70;;;17.70;97.10;;;;;;5057460;28;20455;-75
2022/06/16 05:09:57;;;;;;;5.67;4.07;;;17.80;96.90;;;;;;5055901;28;20463;-75
2022/06/16 05:12:42;;;;;;;5.70;3.90;;;17.90;96.50;;;;;;5063127;28;20788;-76
2022/06/16 05:15:28;;;;;;;8.77;4.33;;;17.90;96.30;;;;;;5053125;28;20510;-76
2022/06/16 05:18:14;;;;;;;6.73;3.93;;;18.00;96.30;;;;;;5055303;28;20454;-76
2022/06/16 05:21:04;;;;;;;4.87;4.40;;;18.10;96.50;;;;;;5063850;28;20450;-75
2022/06/16 05:23:50;;;;;;;8.37;4.23;;;18.20;96.90;;;;;;5069238;28;20478;-76
2022/06/16 05:26:37;;;;;;;8.30;4.80;;;18.30;97.20;;;;;;5053099;28;20428;-75
2022/06/16 05:29:23;;;;;;;7.93;4.37;;;18.40;96.60;;;;;;5058298;28;20430;-76
2022/06/16 05:32:10;;;;;;;8.03;4.33;;;18.60;96.00;;;;;;5063345;28;20520;-75
2022/06/16 05:34:56;;;;;;;6.23;4.60;;;18.80;96.90;;;;;;5062256;28;20566;-75
2022/06/16 05:37:42;;;;;;;7.93;3.93;;;18.90;96.40;;;;;;5046812;28;20452;-76
2022/06/16 05:40:27;;;;;;;9.73;4.77;;;18.90;96.90;;;;;;5056951;28;20830;-75
2022/06/16 05:43:14;;;;;;;6.23;4.03;;;19.00;96.70;;;;;;5057033;28;20472;-76
2022/06/16 05:46:00;;;;;;;4.47;3.70;;;19.20;96.50;;;;;;5065914;28;20431;-76
2022/06/16 05:48:46;;;;;;;7.57;3.97;;;19.30;95.90;;;;;;5057177;28;20795;-75
2022/06/16 05:51:32;;;;;;;7.33;3.90;;;19.50;96.00;;;;;;5059957;28;20944;-75
2022/06/16 05:54:17;;;;;;;6.77;3.97;;;19.60;94.50;;;;;;5058346;28;20419;-76
2022/06/16 05:57:04;;;;;;;7.87;4.20;;;19.80;93.20;;;;;;5050966;28;20447;-75
2022/06/16 05:59:51;;;;;;;8.80;3.50;;;20.10;93.20;;;;;;5062952;28;20521;-75
2022/06/16 06:02:37;;;;;;;5.70;4.53;;;20.20;90.10;;;;;;5059740;28;20435;-76
2022/06/16 06:05:23;;;;;;;10.03;4.03;;;20.40;84.20;;;;;;5056991;28;21043;-76
2022/06/16 06:17:27;;;;;;;7.53;3.60;;;21.10;77.60;;;;;;5043940;28;20661;-75
2022/06/16 06:20:13;;;;;;;6.90;3.87;;;21.30;73.60;;;;;;5062876;28;20576;-76
2022/06/16 06:22:59;;;;;;;7.27;3.87;;;21.30;72.10;;;;;;5067899;28;20471;-75
2022/06/16 06:25:45;;;;;;;7.77;3.90;;;21.40;72.20;;;;;;5056129;28;20538;-75
2022/06/16 06:28:30;;;;;;;6.47;3.73;;;21.50;70.40;;;;;;5054987;28;20505;-75
2022/06/16 06:31:16;;;;;;;10.13;4.07;;;21.50;69.30;;;;;;5055880;28;20850;-75
2022/06/16 06:34:03;;;;;;;7.73;4.07;;;21.60;68.30;;;;;;5059354;28;20424;-75
2022/06/16 06:36:49;;;;;;;6.53;4.20;;;21.70;68.40;;;;;;5043047;28;20523;-76
2022/06/16 06:39:35;;;;;;;7.13;3.50;;;21.80;69.60;;;;;;5055995;28;20450;-75
2022/06/16 06:42:21;;;;;;;4.93;3.63;;;21.90;69.30;;;;;;5051265;28;20500;-75
2022/06/16 06:45:08;;;;;;;8.87;3.60;;;21.90;68.10;;;;;;5058155;28;20424;-77
2022/06/16 06:47:55;;;;;;;8.93;3.50;;;21.80;66.40;;;;;;5059065;28;20585;-76
2022/06/16 06:50:42;;;;;;;5.30;3.27;;;21.90;66.90;;;;;;5061433;28;20458;-75
2022/06/16 06:53:28;;;;;;;6.07;3.60;;;21.90;68.70;;;;;;5047900;28;20415;-75
2022/06/16 06:56:14;;;;;;;5.57;3.90;;;22.00;67.20;;;;;;5039138;28;20446;-75
2022/06/16 06:59:03;;;;;;;6.23;3.50;;;22.10;66.60;;;;;;5058600;28;20928;-76
2022/06/16 07:01:50;;;;;;;7.50;3.50;;;22.30;65.80;;;;;;5060405;28;20435;-75
2022/06/16 07:04:36;;;;;;;7.67;3.47;;;22.40;65.90;;;;;;5061892;28;20474;-75
2022/06/16 07:07:25;;;;;;;7.60;3.70;;;22.40;65.80;;;;;;5057639;28;20427;-76
2022/06/16 07:10:11;;;;;;;7.77;3.90;;;22.50;65.10;;;;;;5052656;28;20457;-76
2022/06/16 07:12:57;;;;;;;12.43;3.83;;;22.60;63.70;;;;;;5060836;28;20509;-75
2022/06/16 07:15:43;;;;;;;5.73;3.73;;;22.70;63.90;;;;;;5051887;28;20806;-75
2022/06/16 07:18:29;;;;;;;8.67;3.37;;;22.80;63.50;;;;;;5057515;28;20501;-75
2022/06/16 07:21:15;;;;;;;11.30;3.80;;;22.80;62.40;;;;;;5059692;28;20512;-75
2022/06/16 07:24:03;;;;;;;6.10;3.70;;;22.90;62.00;;;;;;5065167;28;20470;-75
2022/06/16 07:26:48;;;;;;;6.93;3.40;;;22.90;62.90;;;;;;5049520;28;20559;-75
2022/06/16 07:29:34;;;;;;;6.43;3.57;;;23.00;63.70;;;;;;5054985;28;20466;-75
2022/06/16 07:32:21;;;;;;;7.33;4.27;;;23.20;62.60;;;;;;5048615;28;20422;-75
2022/06/16 07:35:06;;;;;;;5.83;3.80;;;23.30;62.00;;;;;;5054621;28;20913;-75
2022/06/16 07:37:52;;;;;;;5.40;3.50;;;23.30;60.90;;;;;;5060690;28;20431;-76
2022/06/16 07:40:40;;;;;;;5.57;3.43;;;23.40;61.80;;;;;;5061833;28;20520;-75
2022/06/16 07:43:25;;;;;;;4.90;3.60;;;23.40;61.50;;;;;;5057146;28;20467;-76
2022/06/16 07:46:11;;;;;;;6.87;3.83;;;23.40;62.10;;;;;;5050881;28;20967;-76
2022/06/16 07:48:57;;;;;;;6.43;4.17;;;23.50;61.70;;;;;;5059739;28;20795;-76
2022/06/16 07:51:43;;;;;;;8.40;4.13;;;23.50;62.00;;;;;;5061327;28;20434;-75
2022/06/16 07:54:30;;;;;;;4.50;3.07;;;23.60;59.90;;;;;;5045847;28;20525;-76
2022/06/16 07:57:18;;;;;;;4.90;3.27;;;23.80;58.10;;;;;;5051338;28;20485;-75
2022/06/16 08:00:05;;;;;;;5.07;3.80;;;23.80;60.60;;;;;;5059691;28;20509;-75
2022/06/16 08:02:51;;;;;;;8.07;3.90;;;23.90;60.00;;;;;;5064453;28;20478;-76
2022/06/16 08:05:37;;;;;;;6.57;3.27;;;24.00;59.00;;;;;;5044507;28;20823;-75
2022/06/16 08:08:23;;;;;;;4.90;4.07;;;24.10;56.40;;;;;;5055363;28;20478;-76
2022/06/16 08:12:03;;;;;;;11.60;3.90;;;24.10;57.70;;;;;;5062242;28;20839;-75
2022/06/16 08:14:18;;;;;;;6.50;3.50;;;24.20;57.80;;;;;;5050494;28;20657;-76
2022/06/16 08:17:05;;;;;;;4.50;3.13;;;24.10;51.50;;;;;;5067617;28;20942;-75
2022/06/16 08:19:51;;;;;;;10.20;3.23;;;24.10;49.50;;;;;;5059037;28;20455;-75
2022/06/16 08:22:37;;;;;;;8.67;3.70;;;24.30;52.40;;;;;;5066699;28;20435;-75
2022/06/16 08:25:25;;;;;;;6.30;2.70;;;24.40;47.00;;;;;;5049561;28;20474;-76
2022/06/16 08:28:12;;;;;;;5.70;3.33;;;24.50;45.20;;;;;;5063202;28;20558;-76
2022/06/16 08:30:59;;;;;;;6.93;2.97;;;24.50;44.40;;;;;;5064230;28;20466;-76
2022/06/16 08:33:45;;;;;;;4.03;2.97;;;24.60;44.50;;;;;;5056393;28;20436;-75
2022/06/16 08:36:31;;;;;;;9.40;3.03;;;24.70;44.60;;;;;;5059345;28;20420;-76
2022/06/16 08:39:16;;;;;;;3.73;2.50;;;24.70;42.70;;;;;;5054138;28;20427;-76
2022/06/16 08:42:09;;;;;;;8.63;2.73;;;24.70;41.70;;;;;;5062032;28;20419;-75
2022/06/16 08:45:02;;;;;;;8.50;3.17;;;24.80;41.50;;;;;;5055029;28;20479;-75
2022/06/16 08:47:57;;;;;;;6.57;2.90;;;25.00;41.10;;;;;;5066786;28;20814;-76
2022/06/16 08:50:49;;;;;;;6.77;3.53;;;25.10;39.40;;;;;;5062952;28;21054;-75
2022/06/16 08:54:02;;;;;;;7.30;2.83;;;25.20;39.00;;;;;;5048496;28;20458;-76
2022/06/16 08:56:56;;;;;;;6.90;2.70;;;25.30;38.40;;;;;;5063715;28;20545;-76
2022/06/16 08:59:50;;;;;;;12.30;2.80;;;25.40;37.90;;;;;;5058723;28;20972;-76
2022/06/16 09:02:52;;;;;;;12.20;3.07;;;25.50;35.70;;;;;;5060000;28;20431;-76
2022/06/16 09:05:58;;;;;;;6.20;2.43;;;25.50;36.40;;;;;;5053880;28;20471;-76
2022/06/16 09:08:52;;;;;;;5.70;2.50;;;25.50;33.40;;;;;;5058046;28;20435;-75
2022/06/16 09:11:45;;;;;;;5.90;2.73;;;25.60;34.50;;;;;;5060429;28;20509;-75
2022/06/16 09:18:31;;;;;;;7.73;2.63;;;25.70;33.30;;;;;;5059225;28;20474;-76
2022/06/16 09:21:29;;;;;;;3.80;2.67;;;25.70;32.00;;;;;;5055115;28;20493;-76
2022/06/16 09:24:34;;;;;;;10.13;3.40;;;25.80;32.10;;;;;;5051161;28;20486;-76
2022/06/16 09:27:26;;;;;;;4.13;3.00;;;25.90;34.60;;;;;;5056593;28;20895;-75
2022/06/16 09:30:15;;;;;;;11.73;3.47;;;26.00;36.10;;;;;;5063588;28;20434;-76
2022/06/16 09:33:06;;;;;;;5.27;3.57;;;26.10;34.70;;;;;;5053978;28;20444;-76
2022/06/16 09:35:57;;;;;;;6.93;4.20;;;26.20;35.10;;;;;;5061813;28;20422;-76
2022/06/16 09:38:51;;;;;;;7.50;3.33;;;26.20;34.00;;;;;;5063302;28;20428;-76
2022/06/16 09:44:50;;;;;;;5.20;3.33;;;26.20;33.70;;;;;;5056188;28;20485;-76
2022/06/16 09:47:42;;;;;;;7.33;3.60;;;26.10;35.50;;;;;;5057214;28;20434;-76
2022/06/16 09:50:36;;;;;;;6.10;3.53;;;26.10;35.30;;;;;;5057797;28;20462;-76
2022/06/16 09:53:30;;;;;;;14.03;3.23;;;26.10;35.70;;;;;;5044766;28;20524;-76
2022/06/16 09:56:23;;;;;;;5.00;3.30;;;26.30;34.50;;;;;;5052762;28;20423;-76
2022/06/16 09:59:11;;;;;;;6.37;3.20;;;26.30;35.50;;;;;;5061999;28;20577;-76
2022/06/16 10:02:04;;;;;;;4.80;3.07;;;26.30;34.60;;;;;;5059703;28;20489;-76
2022/06/16 10:04:51;;;;;;;5.30;3.03;;;26.30;34.40;;;;;;5058909;28;20556;-76
2022/06/16 10:07:44;;;;;;;7.73;3.40;;;26.40;33.40;;;;;;5060426;28;20473;-77
2022/06/16 10:10:36;;;;;;;5.20;3.20;;;26.50;32.60;;;;;;5055029;28;20999;-76
2022/06/16 10:13:31;;;;;;;4.03;3.40;;;26.60;33.90;;;;;;5047773;28;20463;-75
2022/06/16 10:16:19;;;;;;;10.60;4.00;;;26.60;32.70;;;;;;5060908;28;20426;-76
2022/06/16 10:19:06;;;;;;;8.90;4.03;;;26.70;32.80;;;;;;5060968;28;20497;-76
2022/06/16 10:21:51;;;;;;;8.83;3.50;;;26.60;31.80;;;;;;5061046;28;20842;-76
2022/06/16 10:24:40;;;;;;;10.30;3.80;;;26.50;33.90;;;;;;5052494;28;20607;-76
2022/06/16 10:27:34;;;;;;;10.33;3.70;;;26.40;32.90;;;;;;5050127;28;20570;-76
2022/06/16 10:30:22;;;;;;;5.63;3.70;;;26.50;35.00;;;;;;5062527;28;20497;-76
2022/06/16 10:33:15;;;;;;;6.70;3.80;;;26.60;34.20;;;;;;5051423;28;20526;-76
2022/06/16 10:36:08;;;;;;;12.83;3.70;;;26.80;33.20;;;;;;5061615;28;20423;-76
2022/06/16 10:39:18;;;;;;;6.40;3.83;;;26.90;32.10;;;;;;5064193;28;20430;-76
2022/06/16 10:42:12;;;;;;;6.47;3.90;;;27.10;34.60;;;;;;5055886;28;20534;-76
2022/06/16 10:45:09;;;;;;;9.93;3.70;;;27.10;33.90;;;;;;5060333;28;20471;-76
2022/06/16 10:48:00;;;;;;;6.13;3.70;;;27.20;32.30;;;;;;5062172;28;20980;-76
2022/06/16 10:50:49;;;;;;;5.93;3.97;;;27.20;32.40;;;;;;5062046;28;20971;-75
2022/06/16 10:53:40;;;;;;;7.13;3.53;;;27.10;31.30;;;;;;5046366;28;20451;-76
2022/06/16 10:56:27;;;;;;;8.27;4.30;;;27.10;32.20;;;;;;5059404;28;20502;-76
2022/06/16 10:59:20;;;;;;;7.03;4.13;;;27.10;32.20;;;;;;5062043;28;20422;-76
2022/06/16 11:02:18;;;;;;;5.33;2.83;;;27.10;29.40;;;;;;5067285;22;20541;-75
2022/06/16 11:05:12;;;;;;;9.53;3.30;;;27.10;30.10;;;;;;5070205;28;20470;-75
2022/06/16 11:08:08;;;;;;;5.97;3.03;;;27.20;31.40;;;;;;5070954;28;20509;-75
2022/06/16 11:10:55;;;;;;;8.33;3.97;;;27.40;28.90;;;;;;5052867;28;20602;-75
2022/06/16 11:13:47;;;;;;;4.73;3.00;;;27.50;28.10;;;;;;5049846;28;20496;-76
2022/06/16 11:16:37;;;;;;;11.27;3.47;;;27.50;29.40;;;;;;5051695;28;20432;-75
2022/06/16 11:19:29;;;;;;;4.70;2.90;;;27.60;29.20;;;;;;5054551;28;20570;-76
2022/06/16 11:22:18;;;;;;;4.87;3.23;;;27.80;29.90;;;;;;5049448;28;21080;-75
2022/06/16 11:25:08;;;;;;;4.50;3.30;;;28.00;28.40;;;;;;5057194;28;20467;-76
2022/06/16 11:27:58;;;;;;;8.80;3.43;;;28.00;28.90;;;;;;5050620;28;20868;-75
2022/06/16 11:30:56;;;;;;;5.83;3.40;;;28.00;28.30;;;;;;5050920;28;20467;-76
2022/06/16 11:37:11;;;;;;;4.67;3.00;;;28.00;27.20;;;;;;5049682;28;20515;-74
2022/06/16 11:40:08;;;;;;;6.17;3.60;;;28.10;28.00;;;;;;5048636;28;20511;-76
2022/06/16 11:43:21;;;;;;;9.07;3.77;;;28.10;27.00;;;;;;5049786;28;20444;-76
2022/06/16 11:46:12;;;;;;;9.70;3.53;;;28.00;27.30;;;;;;5052976;28;20606;-76
2022/06/16 11:49:10;;;;;;;4.30;3.27;;;28.20;27.50;;;;;;5052792;28;20451;-76
2022/06/16 11:52:07;;;;;;;8.03;3.77;;;28.30;26.30;;;;;;5046201;28;21090;-76
2022/06/16 11:55:03;;;;;;;11.07;3.80;;;28.50;28.00;;;;;;5051585;28;20578;-76
2022/06/16 11:58:08;;;;;;;7.27;3.47;;;28.60;27.90;;;;;;5053333;28;20486;-76
2022/06/16 12:01:01;;;;;;;5.53;3.73;;;28.50;27.20;;;;;;5046637;28;20482;-76
2022/06/16 12:04:14;;;;;;;8.67;3.50;;;28.30;26.70;;;;;;5053922;28;20810;-75
2022/06/16 12:07:21;;;;;;;8.40;3.50;;;28.40;27.20;;;;;;5052802;28;21067;-76
2022/06/16 12:10:15;;;;;;;9.80;3.60;;;28.50;27.40;;;;;;5050868;28;20819;-75
2022/06/16 12:13:11;;;;;;;8.03;3.87;;;28.70;26.70;;;;;;5059552;28;20789;-76
2022/06/16 12:16:03;;;;;;;6.03;3.50;;;28.80;25.50;;;;;;5052136;28;20443;-76
2022/06/16 12:19:00;;;;;;;4.90;3.43;;;28.90;24.60;;;;;;5051549;28;20443;-76
2022/06/16 12:21:54;;;;;;;4.97;3.00;;;29.00;25.00;;;;;;5046966;28;20513;-75
2022/06/16 12:24:48;;;;;;;5.20;3.07;;;29.00;25.20;;;;;;5052121;28;20479;-76
2022/06/16 12:27:43;;;;;;;7.00;3.03;;;29.10;23.30;;;;;;5050026;28;20443;-76
2022/06/16 12:30:35;;;;;;;4.90;3.40;;;29.10;22.90;;;;;;5049101;28;20474;-76
2022/06/16 12:33:35;;;;;;;4.83;2.60;;;28.90;21.50;;;;;;5050069;28;20961;-75
2022/06/16 12:36:26;;;;;;;4.67;3.37;;;29.00;22.80;;;;;;5050008;28;20519;-75
2022/06/16 12:39:16;;;;;;;5.30;2.93;;;29.00;22.30;;;;;;5053646;28;21011;-76
2022/06/16 12:42:06;;;;;;;7.40;2.20;;;29.20;22.50;;;;;;5054012;28;20467;-76
2022/06/16 12:44:56;;;;;;;4.60;2.70;;;29.40;20.40;;;;;;5050169;28;20471;-76
2022/06/16 12:47:48;;;;;;;6.90;2.40;;;29.40;19.00;;;;;;5053034;28;20439;-75
2022/06/16 12:50:38;;;;;;;5.77;2.00;;;29.00;19.50;;;;;;5048779;28;20466;-75
2022/06/16 12:53:29;;;;;;;3.57;2.23;;;29.00;16.40;;;;;;5047462;28;20456;-75
2022/06/16 12:56:23;;;;;;;4.27;2.60;;;29.00;16.70;;;;;;5052103;28;20443;-75
2022/06/16 12:59:14;;;;;;;6.33;2.00;;;29.10;16.10;;;;;;5050968;28;20459;-75
2022/06/16 13:02:02;;;;;;;6.30;2.30;;;29.30;16.40;;;;;;5052173;28;20475;-76
2022/06/16 13:04:49;;;;;;;7.93;2.53;;;29.50;16.70;;;;;;5048171;28;21007;-75
2022/06/16 13:07:36;;;;;;;6.00;2.30;;;29.60;17.00;;;;;;5051612;28;20462;-76
2022/06/16 13:10:22;;;;;;;4.10;2.17;;;29.80;17.90;;;;;;5051346;28;20442;-76
2022/06/16 13:13:09;;;;;;;3.30;2.33;;;30.00;16.90;;;;;;5053723;28;20523;-76
2022/06/16 13:16:00;;;;;;;7.00;2.40;;;30.20;17.80;;;;;;5051390;28;20803;-76
2022/06/16 13:18:52;;;;;;;5.17;2.67;;;30.40;16.70;;;;;;5054911;28;20467;-76
2022/06/16 13:21:42;;;;;;;4.50;2.30;;;30.00;16.40;;;;;;5054053;28;20829;-76
2022/06/16 13:24:38;;;;;;;3.83;2.10;;;30.10;17.00;;;;;;5046805;28;21245;-75
2022/06/16 13:27:28;;;;;;;6.50;2.47;;;30.30;17.10;;;;;;5052030;28;20813;-75
2022/06/16 13:30:37;;;;;;;5.07;2.20;;;30.50;17.10;;;;;;5044225;28;20443;-76
2022/06/16 13:33:33;;;;;;;4.00;2.27;;;30.70;15.80;;;;;;5049358;28;20448;-76
2022/06/16 13:36:41;;;;;;;4.70;2.50;;;30.50;16.50;;;;;;5051940;28;20810;-76
2022/06/16 13:40:14;;;;;;;5.40;2.67;;;30.20;16.90;;;;;;5044185;28;21210;-76
2022/06/16 13:43:09;;;;;;;6.27;3.00;;;30.40;18.60;;;;;;5050982;28;20452;-76
2022/06/16 13:46:00;;;;;;;5.00;2.67;;;30.20;17.10;;;;;;5049062;28;20471;-76
2022/06/16 13:48:50;;;;;;;5.60;2.50;;;30.40;20.50;;;;;;5045748;28;20459;-76
2022/06/16 13:51:41;;;;;;;5.90;2.70;;;30.20;19.40;;;;;;5050831;28;20484;-76
2022/06/16 13:54:34;;;;;;;4.00;3.20;;;30.40;20.00;;;;;;5048273;28;20483;-75
2022/06/16 13:57:24;;;;;;;5.33;2.83;;;30.10;20.00;;;;;;5051541;28;20441;-75
2022/06/16 14:00:29;;;;;;;4.13;2.67;;;30.30;20.10;;;;;;5051296;28;20600;-75
2022/06/16 14:03:21;;;;;;;6.43;2.63;;;30.20;17.90;;;;;;5045978;28;20455;-75
2022/06/16 14:06:13;;;;;;;8.47;2.60;;;30.20;19.80;;;;;;5051554;28;20477;-76
2022/06/16 14:09:08;;;;;;;4.93;2.27;;;30.40;17.40;;;;;;5046091;28;20455;-76
2022/06/16 14:12:13;;;;;;;9.43;2.60;;;30.50;17.60;;;;;;5050723;28;20589;-75
2022/06/16 14:15:08;;;;;;;11.43;2.33;;;30.50;17.30;;;;;;5051154;28;20454;-76
2022/06/16 14:18:13;;;;;;;10.73;2.67;;;30.50;16.30;;;;;;5050625;28;20455;-76
2022/06/16 14:21:05;;;;;;;10.20;2.43;;;30.60;15.30;;;;;;5048994;28;20471;-76
2022/06/16 14:23:57;;;;;;;5.27;1.93;;;30.20;15.40;;;;;;5049149;28;20436;-76
2022/06/16 14:26:45;;;;;;;9.13;2.97;;;30.10;15.50;;;;;;5048521;28;21020;-76
2022/06/16 14:29:33;;;;;;;4.67;2.40;;;30.00;15.50;;;;;;5041397;28;20447;-76
2022/06/16 14:32:24;;;;;;;5.00;2.37;;;30.10;16.00;;;;;;5046298;28;20470;-75
2022/06/16 14:35:17;;;;;;;3.23;2.00;;;30.20;15.40;;;;;;5049598;28;20955;-76
2022/06/16 14:38:07;;;;;;;4.53;2.33;;;30.40;16.70;;;;;;5047889;28;20447;-76
2022/06/16 14:40:59;;;;;;;3.80;2.07;;;30.50;16.10;;;;;;5050550;28;20510;-76
2022/06/16 14:43:53;;;;;;;18.63;2.50;;;30.60;15.70;;;;;;5048397;28;20449;-76
2022/06/16 14:46:47;;;;;;;7.13;2.13;;;30.50;15.30;;;;;;5047462;28;20479;-76
2022/06/16 14:49:40;;;;;;;3.10;1.90;;;30.50;16.00;;;;;;5048345;28;20550;-75
2022/06/16 14:52:31;;;;;;;6.60;2.57;;;30.40;15.70;;;;;;5050594;28;20510;-75
2022/06/16 14:55:21;;;;;;;6.77;1.90;;;30.30;15.30;;;;;;5047297;28;20442;-75
2022/06/16 14:58:08;;;;;;;3.57;2.37;;;30.10;14.80;;;;;;5045274;28;20444;-76
2022/06/16 15:00:58;;;;;;;4.47;2.13;;;30.10;14.20;;;;;;5045175;28;20517;-74
2022/06/16 15:03:48;;;;;;;2.60;1.60;;;30.10;14.50;;;;;;5050239;28;20530;-74
2022/06/16 15:06:38;;;;;;;3.60;1.80;;;30.20;13.90;;;;;;5048523;28;20560;-75
2022/06/16 15:09:28;;;;;;;3.80;1.80;;;30.10;13.30;;;;;;5048717;28;20518;-75
2022/06/16 15:12:14;;;;;;;2.80;1.63;;;30.00;14.20;;;;;;5046892;28;20553;-74
2022/06/16 15:15:00;;;;;;;4.23;1.83;;;30.10;13.40;;;;;;5043749;28;20454;-75